This is the latest recevied weather packets stored in our database for station/object HS6PNA-1. If no packets are shown the sender has not sent any weather packets the latest 1 day(s).
| Time | Temp. | Humidity | Pressure | Rain* | Wind** | Luminosity | Snow |
|---|---|---|---|---|---|---|---|
| 1836274609 | 32.78° C | 64% | 1004 hPa | - | 0 m/s | 257 W/m² | - |
| 1836274221 | 32.78° C | 65% | 1004 hPa | - | 0 m/s | 165 W/m² | - |
| 1778074144 | 35.56° C | 51% | 1002 hPa | - | 0 m/s | 0 W/m² | - |
| 1778073219 | 35.56° C | 51% | 1001 hPa | - | 0 m/s | 0 W/m² | - |
| 1778072295 | 35.56° C | 50% | 1001 hPa | - | 0 m/s | 0 W/m² | - |
| 1778071415 | 35.56° C | 50% | 1001 hPa | - | 0 m/s | 0 W/m² | - |
| 1778070490 | 35.56° C | 51% | 1001 hPa | - | 0 m/s | 0 W/m² | - |
| 1778069565 | 35.56° C | 51% | 1001 hPa | - | 0 m/s | 0 W/m² | - |
| 1778068640 | 36.11° C | 48% | 1001 hPa | - | 0 m/s | 0 W/m² | - |
| 1778067716 | 36.67° C | 47% | 1001 hPa | - | 0 m/s | 0 W/m² | - |
| 1778066792 | 36.67° C | 46% | 1000 hPa | - | 0 m/s | 3 W/m² | - |
| 1778065866 | 37.22° C | 44% | 1000 hPa | - | 0 m/s | 8 W/m² | - |
| 1778064941 | 37.78° C | 42% | 1000 hPa | - | 0 m/s | 21 W/m² | - |
| 1778064017 | 37.78° C | 41% | 1000 hPa | - | 0 m/s | 33 W/m² | - |
| 1778063092 | 37.78° C | 41% | 1000 hPa | - | 0 m/s | 53 W/m² | - |
| 1778062167 | 37.78° C | 40% | 1000 hPa | - | 0 m/s | 66 W/m² | - |
| 1778061243 | 38.33° C | 39% | 1000 hPa | - | 0 m/s | 83 W/m² | - |
| 1778060319 | 38.89° C | 39% | 1000 hPa | - | 0 m/s | 112 W/m² | - |
| 1778059394 | 38.89° C | 39% | 1000 hPa | - | 0 m/s | 134 W/m² | - |
| 1778058470 | 38.33° C | 39% | 1000 hPa | - | 0 m/s | 198 W/m² | - |
| 1778057545 | 38.89° C | 39% | 1000 hPa | - | 0 m/s | 263 W/m² | - |
| 1778056621 | 38.89° C | 38% | 1000 hPa | - | 0 m/s | 278 W/m² | - |
| 1778055696 | 38.89° C | 37% | 1001 hPa | - | 0 m/s | 244 W/m² | - |
| 1778054771 | 38.89° C | 40% | 1001 hPa | - | 0 m/s | 315 W/m² | - |
| 1778053847 | 40° C | 37% | 1001 hPa | - | 0 m/s | 312 W/m² | - |
* Rain since midnight (hover to see other rain measurements)
** Current wind speed in m/s (hover to see current wind gust speed)